sensor_id;sensor_type;location;lat;lon;timestamp;pressure;altitude;pressure_sealevel;temperature;humidity
76553;BME280;65395;53.168;18.156;2024-02-26T00:00:39;100094.69;;;0.91;90.58
76553;BME280;65395;53.168;18.156;2024-02-26T00:03:27;100097.41;;;0.89;90.63
76553;BME280;65395;53.168;18.156;2024-02-26T00:05:54;100094.40;;;0.86;90.59
76553;BME280;65395;53.168;18.156;2024-02-26T00:08:22;100091.71;;;0.83;90.60
76553;BME280;65395;53.168;18.156;2024-02-26T00:10:49;100095.61;;;0.80;90.50
76553;BME280;65395;53.168;18.156;2024-02-26T00:13:16;100088.02;;;0.76;90.51
76553;BME280;65395;53.168;18.156;2024-02-26T00:15:43;100089.64;;;0.73;90.59
76553;BME280;65395;53.168;18.156;2024-02-26T00:18:10;100093.86;;;0.71;90.70
76553;BME280;65395;53.168;18.156;2024-02-26T00:20:37;100094.02;;;0.69;90.64
76553;BME280;65395;53.168;18.156;2024-02-26T00:23:05;100092.09;;;0.68;90.84
76553;BME280;65395;53.168;18.156;2024-02-26T00:25:32;100094.55;;;0.66;90.87
76553;BME280;65395;53.168;18.156;2024-02-26T00:27:59;100097.75;;;0.66;91.16
76553;BME280;65395;53.168;18.156;2024-02-26T00:30:26;100098.92;;;0.64;90.93
76553;BME280;65395;53.168;18.156;2024-02-26T00:32:53;100096.89;;;0.61;90.65
76553;BME280;65395;53.168;18.156;2024-02-26T00:35:20;100096.88;;;0.58;90.53
76553;BME280;65395;53.168;18.156;2024-02-26T00:37:47;100088.65;;;0.55;90.72
76553;BME280;65395;53.168;18.156;2024-02-26T00:40:14;100083.28;;;0.53;90.73
76553;BME280;65395;53.168;18.156;2024-02-26T00:42:41;100077.59;;;0.52;91.01
76553;BME280;65395;53.168;18.156;2024-02-26T00:45:12;100080.25;;;0.53;91.07
76553;BME280;65395;53.168;18.156;2024-02-26T00:47:39;100079.08;;;0.51;91.13
76553;BME280;65395;53.168;18.156;2024-02-26T00:50:08;100077.55;;;0.49;91.12
76553;BME280;65395;53.168;18.156;2024-02-26T00:52:35;100074.90;;;0.46;91.02
76553;BME280;65395;53.168;18.156;2024-02-26T00:55:02;100075.95;;;0.44;91.02
76553;BME280;65395;53.168;18.156;2024-02-26T00:57:30;100079.85;;;0.42;91.03
76553;BME280;65395;53.168;18.156;2024-02-26T00:59:57;100079.70;;;0.40;90.85
76553;BME280;65395;53.168;18.156;2024-02-26T01:02:24;100075.66;;;0.37;91.03
76553;BME280;65395;53.168;18.156;2024-02-26T01:04:51;100078.29;;;0.35;91.07
76553;BME280;65395;53.168;18.156;2024-02-26T01:07:19;100076.29;;;0.36;91.27
76553;BME280;65395;53.168;18.156;2024-02-26T01:09:46;100082.56;;;0.37;91.43
76553;BME280;65395;53.168;18.156;2024-02-26T01:12:13;100085.43;;;0.35;91.31
76553;BME280;65395;53.168;18.156;2024-02-26T01:14:40;100084.36;;;0.33;91.11
76553;BME280;65395;53.168;18.156;2024-02-26T01:17:06;100088.34;;;0.30;91.09
76553;BME280;65395;53.168;18.156;2024-02-26T01:19:33;100084.25;;;0.30;91.39
76553;BME280;65395;53.168;18.156;2024-02-26T01:22:00;100087.11;;;0.33;91.46
76553;BME280;65395;53.168;18.156;2024-02-26T01:24:29;100087.19;;;0.38;91.49
76553;BME280;65395;53.168;18.156;2024-02-26T01:26:56;100087.84;;;0.42;91.43
76553;BME280;65395;53.168;18.156;2024-02-26T01:29:22;100089.91;;;0.47;91.21
76553;BME280;65395;53.168;18.156;2024-02-26T01:31:49;100090.52;;;0.53;91.25
76553;BME280;65395;53.168;18.156;2024-02-26T01:34:16;100090.54;;;0.62;91.18
76553;BME280;65395;53.168;18.156;2024-02-26T01:36:44;100082.81;;;0.72;91.33
76553;BME280;65395;53.168;18.156;2024-02-26T01:39:11;100087.92;;;0.80;91.22
76553;BME280;65395;53.168;18.156;2024-02-26T01:41:40;100081.84;;;0.89;91.10
76553;BME280;65395;53.168;18.156;2024-02-26T01:44:07;100085.06;;;0.96;91.11
76553;BME280;65395;53.168;18.156;2024-02-26T01:46:35;100088.95;;;1.02;91.06
76553;BME280;65395;53.168;18.156;2024-02-26T01:49:03;100091.88;;;1.09;91.16
76553;BME280;65395;53.168;18.156;2024-02-26T01:51:32;100093.15;;;1.15;91.19
76553;BME280;65395;53.168;18.156;2024-02-26T01:54:02;100097.67;;;1.21;91.34
76553;BME280;65395;53.168;18.156;2024-02-26T01:56:30;100089.55;;;1.23;91.26
76553;BME280;65395;53.168;18.156;2024-02-26T01:58:58;100094.13;;;1.35;91.72
76553;BME280;65395;53.168;18.156;2024-02-26T02:01:27;100094.30;;;1.43;91.92
76553;BME280;65395;53.168;18.156;2024-02-26T02:03:57;100096.67;;;1.53;92.09
76553;BME280;65395;53.168;18.156;2024-02-26T02:06:25;100097.93;;;1.58;91.95
76553;BME280;65395;53.168;18.156;2024-02-26T02:08:54;100100.58;;;1.58;91.81
76553;BME280;65395;53.168;18.156;2024-02-26T02:11:21;100100.30;;;1.56;91.84
76553;BME280;65395;53.168;18.156;2024-02-26T02:13:48;100103.53;;;1.53;91.64
76553;BME280;65395;53.168;18.156;2024-02-26T02:16:15;100101.70;;;1.48;91.50
76553;BME280;65395;53.168;18.156;2024-02-26T02:18:42;100098.88;;;1.43;91.60
76553;BME280;65395;53.168;18.156;2024-02-26T02:21:09;100095.64;;;1.38;91.60
76553;BME280;65395;53.168;18.156;2024-02-26T02:23:36;100096.55;;;1.34;91.43
76553;BME280;65395;53.168;18.156;2024-02-26T02:26:03;100095.46;;;1.30;91.61
76553;BME280;65395;53.168;18.156;2024-02-26T02:28:30;100094.58;;;1.27;91.69
76553;BME280;65395;53.168;18.156;2024-02-26T02:30:57;100091.90;;;1.25;91.76
76553;BME280;65395;53.168;18.156;2024-02-26T02:33:25;100088.06;;;1.22;91.58
76553;BME280;65395;53.168;18.156;2024-02-26T02:35:52;100083.76;;;1.18;91.57
76553;BME280;65395;53.168;18.156;2024-02-26T02:38:21;100083.55;;;1.15;91.56
76553;BME280;65395;53.168;18.156;2024-02-26T02:40:49;100088.52;;;1.13;91.52
76553;BME280;65395;53.168;18.156;2024-02-26T02:43:16;100089.54;;;1.12;91.80
76553;BME280;65395;53.168;18.156;2024-02-26T02:45:43;100092.08;;;1.12;91.68
76553;BME280;65395;53.168;18.156;2024-02-26T02:48:11;100093.14;;;1.10;91.35
76553;BME280;65395;53.168;18.156;2024-02-26T02:50:38;100095.91;;;1.08;91.43
76553;BME280;65395;53.168;18.156;2024-02-26T02:53:05;100092.98;;;1.07;91.63
76553;BME280;65395;53.168;18.156;2024-02-26T02:55:32;100093.86;;;1.07;91.75
76553;BME280;65395;53.168;18.156;2024-02-26T02:57:59;100093.67;;;1.08;92.26
76553;BME280;65395;53.168;18.156;2024-02-26T03:00:26;100097.55;;;1.08;91.99
76553;BME280;65395;53.168;18.156;2024-02-26T03:02:53;100101.58;;;1.03;91.86
76553;BME280;65395;53.168;18.156;2024-02-26T03:05:20;100103.35;;;0.97;91.72
76553;BME280;65395;53.168;18.156;2024-02-26T03:07:47;100104.55;;;0.94;92.22
76553;BME280;65395;53.168;18.156;2024-02-26T03:10:14;100107.67;;;0.88;91.89
76553;BME280;65395;53.168;18.156;2024-02-26T03:12:41;100108.95;;;0.80;91.77
76553;BME280;65395;53.168;18.156;2024-02-26T03:15:08;100107.05;;;0.73;91.66
76553;BME280;65395;53.168;18.156;2024-02-26T03:17:35;100108.73;;;0.65;91.48
76553;BME280;65395;53.168;18.156;2024-02-26T03:20:02;100104.00;;;0.55;91.48
76553;BME280;65395;53.168;18.156;2024-02-26T03:22:31;100103.63;;;0.49;91.71
76553;BME280;65395;53.168;18.156;2024-02-26T03:24:58;100103.33;;;0.47;91.93
76553;BME280;65395;53.168;18.156;2024-02-26T03:27:25;100101.45;;;0.43;92.00
76553;BME280;65395;53.168;18.156;2024-02-26T03:29:52;100100.83;;;0.40;92.00
76553;BME280;65395;53.168;18.156;2024-02-26T03:32:19;100100.02;;;0.38;91.92
76553;BME280;65395;53.168;18.156;2024-02-26T03:34:46;100099.18;;;0.38;92.06
76553;BME280;65395;53.168;18.156;2024-02-26T03:37:13;100098.23;;;0.38;91.75
76553;BME280;65395;53.168;18.156;2024-02-26T03:39:40;100101.52;;;0.41;92.06
76553;BME280;65395;53.168;18.156;2024-02-26T03:42:07;100108.23;;;0.46;92.20
76553;BME280;65395;53.168;18.156;2024-02-26T03:44:33;100109.83;;;0.51;92.24
76553;BME280;65395;53.168;18.156;2024-02-26T03:47:00;100111.00;;;0.55;92.36
76553;BME280;65395;53.168;18.156;2024-02-26T03:49:27;100110.35;;;0.59;92.32
76553;BME280;65395;53.168;18.156;2024-02-26T03:51:54;100108.27;;;0.63;92.49
76553;BME280;65395;53.168;18.156;2024-02-26T03:54:21;100111.60;;;0.69;92.51
76553;BME280;65395;53.168;18.156;2024-02-26T03:56:48;100118.00;;;0.76;92.70
76553;BME280;65395;53.168;18.156;2024-02-26T03:59:15;100113.76;;;0.83;92.78
76553;BME280;65395;53.168;18.156;2024-02-26T04:01:45;100115.27;;;0.90;92.97
76553;BME280;65395;53.168;18.156;2024-02-26T04:04:13;100117.29;;;0.95;92.95
76553;BME280;65395;53.168;18.156;2024-02-26T04:06:44;100112.85;;;1.03;93.08
76553;BME280;65395;53.168;18.156;2024-02-26T04:09:14;100113.27;;;1.10;93.30
76553;BME280;65395;53.168;18.156;2024-02-26T04:11:41;100116.36;;;1.14;93.13
76553;BME280;65395;53.168;18.156;2024-02-26T04:14:09;100117.53;;;1.17;93.19
76553;BME280;65395;53.168;18.156;2024-02-26T04:16:38;100113.80;;;1.21;93.16
76553;BME280;65395;53.168;18.156;2024-02-26T04:19:05;100112.40;;;1.23;93.34
76553;BME280;65395;53.168;18.156;2024-02-26T04:21:34;100111.21;;;1.24;93.33
76553;BME280;65395;53.168;18.156;2024-02-26T04:24:01;100106.35;;;1.25;93.44
76553;BME280;65395;53.168;18.156;2024-02-26T04:26:30;100104.54;;;1.29;93.55
76553;BME280;65395;53.168;18.156;2024-02-26T04:28:57;100104.90;;;1.33;93.68
76553;BME280;65395;53.168;18.156;2024-02-26T04:31:24;100108.38;;;1.37;93.67
76553;BME280;65395;53.168;18.156;2024-02-26T04:33:51;100113.20;;;1.39;93.62
76553;BME280;65395;53.168;18.156;2024-02-26T04:36:18;100112.18;;;1.40;93.65
76553;BME280;65395;53.168;18.156;2024-02-26T04:38:45;100115.67;;;1.42;93.86
76553;BME280;65395;53.168;18.156;2024-02-26T04:41:12;100117.75;;;1.44;93.61
76553;BME280;65395;53.168;18.156;2024-02-26T04:43:40;100117.83;;;1.47;93.68
76553;BME280;65395;53.168;18.156;2024-02-26T04:46:08;100113.02;;;1.48;93.68
76553;BME280;65395;53.168;18.156;2024-02-26T04:48:36;100115.73;;;1.48;93.50
76553;BME280;65395;53.168;18.156;2024-02-26T04:51:03;100116.95;;;1.47;93.52
76553;BME280;65395;53.168;18.156;2024-02-26T04:53:30;100111.53;;;1.43;93.19
76553;BME280;65395;53.168;18.156;2024-02-26T04:55:58;100111.91;;;1.39;92.99
76553;BME280;65395;53.168;18.156;2024-02-26T04:58:25;100113.42;;;1.36;92.90
76553;BME280;65395;53.168;18.156;2024-02-26T05:00:52;100116.95;;;1.34;92.91
76553;BME280;65395;53.168;18.156;2024-02-26T05:03:19;100120.23;;;1.30;92.74
76553;BME280;65395;53.168;18.156;2024-02-26T05:05:46;100122.29;;;1.29;92.85
76553;BME280;65395;53.168;18.156;2024-02-26T05:08:13;100125.72;;;1.29;93.27
76553;BME280;65395;53.168;18.156;2024-02-26T05:10:40;100126.46;;;1.27;93.07
76553;BME280;65395;53.168;18.156;2024-02-26T05:13:08;100128.90;;;1.27;93.11
76553;BME280;65395;53.168;18.156;2024-02-26T05:15:35;100135.80;;;1.26;93.15
76553;BME280;65395;53.168;18.156;2024-02-26T05:18:03;100137.80;;;1.24;92.97
76553;BME280;65395;53.168;18.156;2024-02-26T05:20:30;100145.13;;;1.22;92.78
76553;BME280;65395;53.168;18.156;2024-02-26T05:22:57;100153.17;;;1.15;92.38
76553;BME280;65395;53.168;18.156;2024-02-26T05:25:25;100155.92;;;1.09;92.36
76553;BME280;65395;53.168;18.156;2024-02-26T05:27:52;100155.20;;;1.06;92.56
76553;BME280;65395;53.168;18.156;2024-02-26T05:30:19;100160.45;;;1.00;92.45
76553;BME280;65395;53.168;18.156;2024-02-26T05:32:46;100163.60;;;0.97;92.43
76553;BME280;65395;53.168;18.156;2024-02-26T05:35:13;100161.46;;;0.96;92.66
76553;BME280;65395;53.168;18.156;2024-02-26T05:37:40;100163.84;;;0.95;92.68
76553;BME280;65395;53.168;18.156;2024-02-26T05:40:07;100167.25;;;0.94;92.79
76553;BME280;65395;53.168;18.156;2024-02-26T05:42:34;100165.86;;;0.92;92.60
76553;BME280;65395;53.168;18.156;2024-02-26T05:45:01;100169.79;;;0.89;92.36
76553;BME280;65395;53.168;18.156;2024-02-26T05:47:33;100170.11;;;0.86;92.38
76553;BME280;65395;53.168;18.156;2024-02-26T05:50:02;100174.52;;;0.80;92.16
76553;BME280;65395;53.168;18.156;2024-02-26T05:52:29;100174.88;;;0.74;92.27
76553;BME280;65395;53.168;18.156;2024-02-26T05:54:56;100179.70;;;0.71;92.47
76553;BME280;65395;53.168;18.156;2024-02-26T05:57:23;100188.05;;;0.70;92.40
76553;BME280;65395;53.168;18.156;2024-02-26T05:59:50;100190.61;;;0.69;92.31
76553;BME280;65395;53.168;18.156;2024-02-26T06:02:17;100188.23;;;0.70;92.66
76553;BME280;65395;53.168;18.156;2024-02-26T06:04:44;100193.12;;;0.70;92.57
76553;BME280;65395;53.168;18.156;2024-02-26T06:07:13;100192.70;;;0.70;92.53
76553;BME280;65395;53.168;18.156;2024-02-26T06:09:40;100194.92;;;0.69;92.27
76553;BME280;65395;53.168;18.156;2024-02-26T06:12:07;100192.38;;;0.70;92.44
76553;BME280;65395;53.168;18.156;2024-02-26T06:14:34;100190.83;;;0.72;92.58
76553;BME280;65395;53.168;18.156;2024-02-26T06:17:01;100195.30;;;0.76;92.60
76553;BME280;65395;53.168;18.156;2024-02-26T06:19:27;100192.55;;;0.78;92.73
76553;BME280;65395;53.168;18.156;2024-02-26T06:21:54;100199.42;;;0.83;92.51
76553;BME280;65395;53.168;18.156;2024-02-26T06:24:21;100199.13;;;0.86;92.48
76553;BME280;65395;53.168;18.156;2024-02-26T06:26:49;100204.36;;;0.89;92.57
76553;BME280;65395;53.168;18.156;2024-02-26T06:29:16;100207.19;;;0.93;92.61
76553;BME280;65395;53.168;18.156;2024-02-26T06:31:43;100204.48;;;1.00;92.61
76553;BME280;65395;53.168;18.156;2024-02-26T06:34:10;100200.80;;;1.05;92.74
76553;BME280;65395;53.168;18.156;2024-02-26T06:36:38;100202.63;;;1.08;92.70
76553;BME280;65395;53.168;18.156;2024-02-26T06:39:05;100211.71;;;1.11;92.72
76553;BME280;65395;53.168;18.156;2024-02-26T06:41:32;100216.48;;;1.16;92.72
76553;BME280;65395;53.168;18.156;2024-02-26T06:43:59;100215.59;;;1.20;92.56
76553;BME280;65395;53.168;18.156;2024-02-26T06:46:26;100216.45;;;1.24;92.63
76553;BME280;65395;53.168;18.156;2024-02-26T06:48:55;100216.48;;;1.28;92.71
76553;BME280;65395;53.168;18.156;2024-02-26T06:51:22;100214.66;;;1.32;92.58
76553;BME280;65395;53.168;18.156;2024-02-26T06:53:50;100219.17;;;1.38;92.55
76553;BME280;65395;53.168;18.156;2024-02-26T06:59:32;100215.73;;;1.50;92.52
76553;BME280;65395;53.168;18.156;2024-02-26T07:01:59;100210.55;;;1.51;92.23
76553;BME280;65395;53.168;18.156;2024-02-26T07:04:27;100207.73;;;1.50;92.23
76553;BME280;65395;53.168;18.156;2024-02-26T07:06:54;100209.92;;;1.50;92.21
76553;BME280;65395;53.168;18.156;2024-02-26T07:37:18;100234.59;;;2.09;92.52
76553;BME280;65395;53.168;18.156;2024-02-26T07:39:45;100237.79;;;2.17;92.55
76553;BME280;65395;53.168;18.156;2024-02-26T07:42:12;100240.52;;;2.24;92.52
76553;BME280;65395;53.168;18.156;2024-02-26T07:44:39;100242.50;;;2.32;92.89
76553;BME280;65395;53.168;18.156;2024-02-26T07:47:09;100245.08;;;2.43;92.77
76553;BME280;65395;53.168;18.156;2024-02-26T07:49:36;100246.73;;;2.54;92.68
76553;BME280;65395;53.168;18.156;2024-02-26T07:52:04;100253.18;;;2.58;92.29
76553;BME280;65395;53.168;18.156;2024-02-26T07:54:30;100255.13;;;2.65;92.17
76553;BME280;65395;53.168;18.156;2024-02-26T07:56:57;100252.80;;;2.75;92.41
76553;BME280;65395;53.168;18.156;2024-02-26T07:59:24;100253.65;;;2.85;92.40
76553;BME280;65395;53.168;18.156;2024-02-26T08:01:51;100256.95;;;2.96;92.17
76553;BME280;65395;53.168;18.156;2024-02-26T08:04:19;100257.96;;;3.04;92.13
76553;BME280;65395;53.168;18.156;2024-02-26T08:06:46;100258.46;;;3.16;92.15
76553;BME280;65395;53.168;18.156;2024-02-26T08:09:13;100260.02;;;3.26;92.31
76553;BME280;65395;53.168;18.156;2024-02-26T08:11:40;100261.58;;;3.37;92.30
76553;BME280;65395;53.168;18.156;2024-02-26T08:14:07;100261.27;;;3.43;92.01
76553;BME280;65395;53.168;18.156;2024-02-26T08:16:34;100265.95;;;3.48;91.83
76553;BME280;65395;53.168;18.156;2024-02-26T08:19:01;100260.55;;;3.51;91.65
76553;BME280;65395;53.168;18.156;2024-02-26T08:21:28;100265.65;;;3.55;91.63
76553;BME280;65395;53.168;18.156;2024-02-26T08:23:55;100266.71;;;3.58;91.53
76553;BME280;65395;53.168;18.156;2024-02-26T08:26:21;100267.82;;;3.65;91.80
76553;BME280;65395;53.168;18.156;2024-02-26T08:28:50;100265.48;;;3.72;91.69
76553;BME280;65395;53.168;18.156;2024-02-26T08:31:18;100265.70;;;3.82;91.79
76553;BME280;65395;53.168;18.156;2024-02-26T08:33:45;100261.09;;;3.86;91.84
76553;BME280;65395;53.168;18.156;2024-02-26T08:36:11;100264.43;;;4.00;91.82
76553;BME280;65395;53.168;18.156;2024-02-26T08:38:39;100266.02;;;4.12;91.85
76553;BME280;65395;53.168;18.156;2024-02-26T08:41:06;100262.98;;;4.22;91.74
76553;BME280;65395;53.168;18.156;2024-02-26T08:43:33;100268.90;;;4.34;91.65
76553;BME280;65395;53.168;18.156;2024-02-26T08:46:00;100270.27;;;4.42;91.50
76553;BME280;65395;53.168;18.156;2024-02-26T08:48:27;100269.35;;;4.49;91.32
76553;BME280;65395;53.168;18.156;2024-02-26T08:50:54;100274.45;;;4.55;91.33
76553;BME280;65395;53.168;18.156;2024-02-26T08:53:21;100274.27;;;4.60;91.17
76553;BME280;65395;53.168;18.156;2024-02-26T08:55:48;100273.59;;;4.61;90.97
76553;BME280;65395;53.168;18.156;2024-02-26T08:58:15;100277.67;;;4.63;91.09
76553;BME280;65395;53.168;18.156;2024-02-26T09:00:42;100280.49;;;4.65;90.86
76553;BME280;65395;53.168;18.156;2024-02-26T09:03:09;100282.65;;;4.68;90.94
76553;BME280;65395;53.168;18.156;2024-02-26T09:05:35;100280.80;;;4.73;91.15
76553;BME280;65395;53.168;18.156;2024-02-26T09:08:03;100283.46;;;4.79;91.03
76553;BME280;65395;53.168;18.156;2024-02-26T09:10:30;100285.93;;;4.79;90.79
76553;BME280;65395;53.168;18.156;2024-02-26T09:12:57;100285.98;;;4.77;90.69
76553;BME280;65395;53.168;18.156;2024-02-26T09:15:24;100288.39;;;4.76;90.80
76553;BME280;65395;53.168;18.156;2024-02-26T09:17:51;100290.64;;;4.79;91.05
76553;BME280;65395;53.168;18.156;2024-02-26T09:20:18;100292.42;;;4.84;91.05
76553;BME280;65395;53.168;18.156;2024-02-26T09:22:46;100298.71;;;4.87;90.97
76553;BME280;65395;53.168;18.156;2024-02-26T09:25:14;100300.27;;;4.86;90.82
76553;BME280;65395;53.168;18.156;2024-02-26T09:27:43;100300.59;;;4.88;91.01
76553;BME280;65395;53.168;18.156;2024-02-26T09:30:11;100302.59;;;4.91;91.11
76553;BME280;65395;53.168;18.156;2024-02-26T09:32:39;100304.73;;;4.95;91.17
76553;BME280;65395;53.168;18.156;2024-02-26T09:35:06;100306.21;;;4.98;91.25
76553;BME280;65395;53.168;18.156;2024-02-26T09:37:34;100300.06;;;5.01;91.30
76553;BME280;65395;53.168;18.156;2024-02-26T09:40:04;100297.55;;;5.03;91.25
76553;BME280;65395;53.168;18.156;2024-02-26T09:42:34;100297.66;;;5.07;91.26
76553;BME280;65395;53.168;18.156;2024-02-26T09:45:05;100299.45;;;5.09;91.16
76553;BME280;65395;53.168;18.156;2024-02-26T09:47:35;100297.95;;;5.12;91.06
76553;BME280;65395;53.168;18.156;2024-02-26T09:50:03;100300.68;;;5.15;91.06
76553;BME280;65395;53.168;18.156;2024-02-26T09:52:33;100301.84;;;5.19;91.08
76553;BME280;65395;53.168;18.156;2024-02-26T09:55:01;100303.56;;;5.22;91.15
76553;BME280;65395;53.168;18.156;2024-02-26T09:57:30;100309.70;;;5.24;91.16
76553;BME280;65395;53.168;18.156;2024-02-26T09:59:59;100310.70;;;5.27;91.27
76553;BME280;65395;53.168;18.156;2024-02-26T10:02:33;100310.23;;;5.31;91.09
76553;BME280;65395;53.168;18.156;2024-02-26T10:05:02;100309.61;;;5.34;91.05
76553;BME280;65395;53.168;18.156;2024-02-26T10:07:31;100304.60;;;5.40;91.00
76553;BME280;65395;53.168;18.156;2024-02-26T10:09:58;100306.81;;;5.44;90.83
76553;BME280;65395;53.168;18.156;2024-02-26T10:12:26;100308.60;;;5.50;90.93
76553;BME280;65395;53.168;18.156;2024-02-26T10:14:55;100308.71;;;5.56;90.91
76553;BME280;65395;53.168;18.156;2024-02-26T10:17:22;100309.29;;;5.64;90.83
76553;BME280;65395;53.168;18.156;2024-02-26T10:19:49;100304.58;;;5.73;90.92
76553;BME280;65395;53.168;18.156;2024-02-26T10:22:18;100306.43;;;5.84;90.93
76553;BME280;65395;53.168;18.156;2024-02-26T10:24:46;100302.23;;;5.94;90.97
76553;BME280;65395;53.168;18.156;2024-02-26T10:27:14;100305.92;;;6.05;91.02
76553;BME280;65395;53.168;18.156;2024-02-26T10:29:42;100298.84;;;6.15;91.16
76553;BME280;65395;53.168;18.156;2024-02-26T10:32:09;100304.13;;;6.25;91.10
76553;BME280;65395;53.168;18.156;2024-02-26T10:34:39;100297.65;;;6.35;91.04
76553;BME280;65395;53.168;18.156;2024-02-26T10:37:09;100297.64;;;6.45;91.11
76553;BME280;65395;53.168;18.156;2024-02-26T10:39:36;100289.69;;;6.56;91.03
76553;BME280;65395;53.168;18.156;2024-02-26T10:42:04;100290.23;;;6.68;91.08
76553;BME280;65395;53.168;18.156;2024-02-26T10:44:36;100288.66;;;6.82;90.99
76553;BME280;65395;53.168;18.156;2024-02-26T10:47:03;100286.36;;;6.94;90.75
76553;BME280;65395;53.168;18.156;2024-02-26T10:49:30;100288.69;;;7.08;90.61
76553;BME280;65395;53.168;18.156;2024-02-26T10:51:58;100290.25;;;7.20;90.52
76553;BME280;65395;53.168;18.156;2024-02-26T10:54:26;100294.67;;;7.34;90.22
76553;BME280;65395;53.168;18.156;2024-02-26T10:56:56;100292.97;;;7.48;89.92
76553;BME280;65395;53.168;18.156;2024-02-26T10:59:26;100294.27;;;7.62;89.65
76553;BME280;65395;53.168;18.156;2024-02-26T11:01:54;100295.41;;;7.72;89.49
76553;BME280;65395;53.168;18.156;2024-02-26T11:04:22;100292.67;;;7.80;89.22
76553;BME280;65395;53.168;18.156;2024-02-26T11:06:49;100294.59;;;7.89;89.03
76553;BME280;65395;53.168;18.156;2024-02-26T11:09:17;100295.05;;;7.97;88.68
76553;BME280;65395;53.168;18.156;2024-02-26T11:11:46;100287.88;;;8.00;88.58
76553;BME280;65395;53.168;18.156;2024-02-26T11:14:14;100286.38;;;8.16;88.52
76553;BME280;65395;53.168;18.156;2024-02-26T11:16:42;100286.77;;;8.32;88.38
76553;BME280;65395;53.168;18.156;2024-02-26T11:19:10;100281.65;;;8.48;88.01
76553;BME280;65395;53.168;18.156;2024-02-26T11:21:40;100281.08;;;8.67;87.94
76553;BME280;65395;53.168;18.156;2024-02-26T11:24:09;100280.13;;;8.84;87.52
76553;BME280;65395;53.168;18.156;2024-02-26T11:26:42;100276.02;;;8.97;87.18
76553;BME280;65395;53.168;18.156;2024-02-26T11:29:14;100285.30;;;9.22;86.53
76553;BME280;65395;53.168;18.156;2024-02-26T11:31:42;100283.53;;;9.39;86.39
76553;BME280;65395;53.168;18.156;2024-02-26T11:34:10;100284.04;;;9.54;86.28
76553;BME280;65395;53.168;18.156;2024-02-26T11:36:38;100276.27;;;9.69;86.13
76553;BME280;65395;53.168;18.156;2024-02-26T11:39:06;100276.17;;;9.83;85.78
76553;BME280;65395;53.168;18.156;2024-02-26T11:41:33;100274.66;;;9.93;85.28
76553;BME280;65395;53.168;18.156;2024-02-26T11:44:01;100283.72;;;10.03;85.11
76553;BME280;65395;53.168;18.156;2024-02-26T11:46:31;100285.73;;;10.13;84.88
76553;BME280;65395;53.168;18.156;2024-02-26T11:49:01;100289.09;;;10.20;85.00
76553;BME280;65395;53.168;18.156;2024-02-26T11:51:34;100289.45;;;10.29;84.71
76553;BME280;65395;53.168;18.156;2024-02-26T11:54:01;100292.98;;;10.41;84.50
76553;BME280;65395;53.168;18.156;2024-02-26T11:56:28;100292.73;;;10.53;84.46
76553;BME280;65395;53.168;18.156;2024-02-26T11:59:00;100294.31;;;10.64;84.27
76553;BME280;65395;53.168;18.156;2024-02-26T12:01:42;100287.17;;;10.76;82.98
76553;BME280;65395;53.168;18.156;2024-02-26T12:04:14;100289.81;;;10.86;83.32
76553;BME280;65395;53.168;18.156;2024-02-26T12:06:45;100291.04;;;10.99;83.11
76553;BME280;65395;53.168;18.156;2024-02-26T12:09:12;100284.34;;;11.08;82.75
76553;BME280;65395;53.168;18.156;2024-02-26T12:11:41;100282.86;;;11.18;82.37
76553;BME280;65395;53.168;18.156;2024-02-26T12:14:09;100289.67;;;11.27;82.22
76553;BME280;65395;53.168;18.156;2024-02-26T12:16:38;100288.23;;;11.34;81.90
76553;BME280;65395;53.168;18.156;2024-02-26T12:19:06;100285.35;;;11.39;82.03
76553;BME280;65395;53.168;18.156;2024-02-26T12:21:35;100288.67;;;11.43;81.85
76553;BME280;65395;53.168;18.156;2024-02-26T12:24:12;100287.94;;;11.47;80.70
76553;BME280;65395;53.168;18.156;2024-02-26T12:26:40;100282.05;;;11.56;80.56
76553;BME280;65395;53.168;18.156;2024-02-26T12:29:08;100281.52;;;11.68;80.72
76553;BME280;65395;53.168;18.156;2024-02-26T12:31:35;100283.79;;;11.84;80.76
76553;BME280;65395;53.168;18.156;2024-02-26T12:34:04;100284.80;;;12.02;80.30
76553;BME280;65395;53.168;18.156;2024-02-26T12:36:33;100282.64;;;12.18;79.75
76553;BME280;65395;53.168;18.156;2024-02-26T12:39:02;100279.15;;;12.32;79.52
76553;BME280;65395;53.168;18.156;2024-02-26T12:41:33;100279.70;;;12.42;79.44
76553;BME280;65395;53.168;18.156;2024-02-26T12:44:00;100280.65;;;12.49;79.20
76553;BME280;65395;53.168;18.156;2024-02-26T12:46:27;100275.75;;;12.56;78.77
76553;BME280;65395;53.168;18.156;2024-02-26T12:48:56;100274.20;;;12.61;78.46
76553;BME280;65395;53.168;18.156;2024-02-26T12:51:26;100271.83;;;12.64;78.04
76553;BME280;65395;53.168;18.156;2024-02-26T12:53:54;100273.55;;;12.65;78.16
76553;BME280;65395;53.168;18.156;2024-02-26T12:56:22;100271.86;;;12.68;78.04
76553;BME280;65395;53.168;18.156;2024-02-26T12:58:50;100273.01;;;12.71;77.64
76553;BME280;65395;53.168;18.156;2024-02-26T13:01:22;100270.35;;;12.77;78.13
76553;BME280;65395;53.168;18.156;2024-02-26T13:03:51;100270.89;;;12.87;77.62
76553;BME280;65395;53.168;18.156;2024-02-26T13:06:20;100269.90;;;12.90;76.62
76553;BME280;65395;53.168;18.156;2024-02-26T13:08:48;100265.10;;;12.91;76.22
76553;BME280;65395;53.168;18.156;2024-02-26T13:11:15;100272.98;;;12.98;75.82
76553;BME280;65395;53.168;18.156;2024-02-26T13:13:42;100274.45;;;13.07;76.24
76553;BME280;65395;53.168;18.156;2024-02-26T13:16:15;100275.30;;;13.20;75.81
76553;BME280;65395;53.168;18.156;2024-02-26T13:18:42;100277.14;;;13.30;75.77
76553;BME280;65395;53.168;18.156;2024-02-26T13:21:13;100275.53;;;13.38;75.35